Station: Douglas River

  Atmospheric Gas Attenuation - ITU Rec 676-11   --------------- db/100km ---------------
Date Time Temp RH % AH g/m3 Dew Point Wind Direction Speed kph Gust kph Barometer mB Rainfall Since 9am 24GHz 47GHz 76GHz 122GHz 134GHz 241GHz
11 23:00 26.5 86 21.53 24 4 7 1010.6 2.4 46.2 44.1 87.6 231.9 259.3 901.0
11 22:50 26.8 84 21.38 23.9 6 7 1010.7 2.4 45.8 43.6 86.5 229.1 255.9 889.2
11 22:40 26.7 85 21.52 24 6 7 1010.7 2.4 46.1 43.9 87.3 231.2 258.5 898.1
11 22:30 26.8 84 21.38 23.9 2 7 1010.7 2.4 45.8 43.6 86.5 229.1 255.9 889.2
11 22:20 26.7 85 21.52 24 0 0 1010.6 2.4 46.1 43.9 87.3 231.2 258.5 898.1
11 22:10 27.2 81 21.08 23.7 0 0 1010.5 2.4 45.2 42.8 84.6 223.9 249.8 867.9
11 22:00 27.3 80 20.93 23.5 0 0 1010.5 2.4 44.8 42.5 83.8 221.7 247.1 858.5
11 21:50 27.5 79 20.9 23.5 0 0 1010.5 2.4 44.7 42.3 83.4 220.8 245.9 854.6
11 21:40 27.7 78 20.87 23.5 0 0 1010.3 2.4 44.6 42.1 83.0 219.8 244.8 850.6
11 21:30 27.4 81 21.31 23.8 6 7 1010.3 2.4 45.6 43.1 85.5 226.3 252.7 878.0
11 21:20 27.5 80 21.17 23.7 4 6 1010.2 2.4 45.3 42.8 84.7 224.2 250.1 869.2
11 21:10 28.2 77 21.17 23.8 6 7 1010.1 2.4 45.2 42.5 83.9 222.1 247.7 861.1
11 21:00 27.8 81 21.79 24.2 9 15 1009.9 2.4 46.6 43.9 87.3 231.2 258.8 899.4
11 20:50 26.7 87 22.02 24.4 2 9 1009.6 2.4 47.2 44.9 89.7 237.6 266.3 925.4
11 20:40 26.9 87 22.27 24.5 0 0 1009.5 2.4 47.7 45.3 90.7 240.2 269.7 937.0
11 20:30 27.1 83 21.48 24 0 0 1009.3 2.4 46.0 43.6 86.6 229.2 256.2 890.3
11 20:20 26.9 82 20.99 23.6 0 0 1009.1 2.4 45.0 42.7 84.4 223.4 249.1 865.6
11 20:10 27.2 88 22.9 25 0 0 1008.9 2.4 49.0 46.3 93.5 247.5 278.7 968.5
11 20:00 27.2 85 22.12 24.5 0 0 1008.8 2.4 47.4 44.8 89.6 237.2 266.0 924.4
11 19:50 27.3 79 20.67 23.3 0 0 1008.6 2.4 44.3 41.9 82.4 218.1 242.7 843.4
11 19:40 27.5 83 21.96 24.3 0 0 1008.6 2.4 47.0 44.3 88.4 234.1 262.3 911.7
11 19:30 27.6 80 21.28 23.8 0 0 1008.5 2.4 45.5 42.9 85.0 225.0 251.2 873.0
11 19:20 27.6 82 21.82 24.2 0 0 1008.4 2.4 46.7 44.0 87.6 231.9 259.7 902.6
11 19:10 27.7 83 22.2 24.5 0 0 1008.2 2.4 47.5 44.6 89.3 236.5 265.4 922.3
11 19:00 27.9 82 22.18 24.5 0 0 1008.2 2.4 47.4 44.5 89.0 235.6 264.4 918.7
11 18:50 28 84 22.85 25 0 0 1008.3 2.4 48.8 45.8 92.2 244.1 274.8 955.0
11 18:40 27.9 80 21.64 24.1 0 0 1008.2 2.4 46.3 43.4 86.3 228.6 255.8 889.0
11 18:30 28 80 21.76 24.2 0 0 1008.1 2.4 46.5 43.6 86.8 229.9 257.3 894.3
11 18:20 27.9 79 21.37 23.9 0 0 1008.1 2.4 45.7 42.9 85.0 225.2 251.5 874.2
11 18:10 27.7 79 21.13 23.7 0 0 1007.9 2.4 45.2 42.5 84.1 222.7 248.4 863.3
11 18:00 28 78 21.21 23.8 0 6 1007.9 2.4 45.4 42.5 84.1 222.8 248.7 864.2
11 17:50 28.5 71 19.85 22.7 2 6 1007.9 2.4 42.4 39.7 77.2 204.5 226.3 786.6
11 17:40 28.2 72 19.8 22.7 6 7 1007.8 2.4 42.3 39.8 77.3 204.6 226.5 787.1
11 17:30 27.7 71 18.99 22 7 11 1007.8 2.4 40.7 38.5 74.1 196.1 215.9 750.1
11 17:20 28.1 65 17.78 21.1 11 13 1007.9 2.4 38.1 36.2 68.4 180.8 197.2 685.2
11 17:10 30.8 48 15.2 18.8 15 22 1008.1 2 32.5 30.8 55.5 146.8 156.1 542.3
11 17:00 33.4 41 14.91 18.7 13 37 1007.6 0 31.7 29.5 52.6 139.1 147.4 512.1
11 16:50 35.2 38 15.19 19.1 4 7 1007.4 0 32.1 29.3 52.5 138.7 147.4 512.4
11 16:40 35.3 40 16.07 20 7 9 1007.3 0 33.9 30.6 55.7 147.3 157.9 549.2
11 16:30 35.8 34 14.02 17.9 7 11 1007.3 0 29.7 27.4 47.9 126.5 132.5 460.5
11 16:20 36 37 15.41 19.4 7 11 1007.3 0 32.5 29.4 52.8 139.5 148.5 516.5
11 16:10 35.4 35 14.13 18 9 11 1007.3 0 29.9 27.7 48.5 128.2 134.5 467.2
11 16:00 35.6 32 13.06 16.8 9 20 1007.2 0 27.7 26.1 44.7 117.8 121.8 423.1
11 15:50 35.6 38 15.51 19.1 0 0 1007.2 0 32.7 29.7 53.4 141.2 150.5 523.3
11 15:40 35.6 44 17.95 21.5 4 6 1007.3 0 37.8 33.4 62.7 166.0 181.0 629.7
11 15:30 34.6 44 17.04 20.9 6 7 1007.4 0 36.0 32.4 59.9 158.5 171.6 596.8
11 15:20 34.7 43 16.74 20.3 6 6 1007.4 0 35.3 31.9 58.7 155.2 167.6 582.7
11 15:10 35.1 36 14.31 18.2 0 0 1007.6 0 30.3 28.1 49.4 130.4 137.1 476.5
11 15:00 35.5 35 14.21 17.7 6 11 1007.7 0 30.1 27.8 48.8 128.8 135.3 470.1
11 14:50 36 33 13.75 17.2 9 11 1007.7 0 29.1 27.0 46.9 123.7 129.1 448.6
11 14:40 36.4 37 15.74 19.4 9 15 1007.8 0 33.1 29.8 53.7 142.1 151.8 528.0
11 14:30 36 36 15 18.6 9 13 1007.9 0 31.7 28.8 51.3 135.6 143.7 499.7
11 14:20 36 36 15 19 9 13 1008 0 31.7 28.8 51.3 135.6 143.7 499.7
11 14:10 36.2 40 16.84 20.8 9 11 1008.2 0 35.4 31.5 58.0 153.5 165.7 576.5
11 14:00 35.9 41 16.99 20.6 9 13 1008.3 0 35.7 31.8 58.8 155.6 168.2 585.3
11 13:50 35.6 39 15.91 19.9 7 9 1008.4 0 33.6 30.3 55.0 145.3 155.5 540.7
11 13:40 35.6 41 16.73 20.7 9 9 1008.5 0 35.2 31.6 58.1 153.5 165.7 576.2
11 13:30 35.4 40 16.15 20.1 6 9 1008.7 0 34.1 30.7 56.0 148.1 158.9 552.5
11 13:20 35.1 43 17.1 21 0 6 1008.9 0 36.0 32.3 59.9 158.4 171.4 596.3
11 13:10 34.9 47 18.49 22.2 7 9 1009.1 0 38.9 34.6 65.6 173.5 189.9 660.8
11 13:00 35.2 47 18.78 22.5 7 15 1009.2 0 39.5 35.0 66.5 176.0 193.1 671.7
11 12:50 34.6 48 18.59 22.3 11 11 1009.4 0 39.2 34.9 66.2 175.3 192.1 668.1
11 12:40 34.9 49 19.28 22.9 6 7 1009.6 0 40.5 36.0 68.8 182.1 200.6 697.8
11 12:30 34.6 44 17.04 20.6 6 15 1009.8 0 36.0 32.5 60.1 158.9 171.9 597.8
11 12:20 34.8 46 18.01 21.8 9 15 1010.1 0 37.9 33.9 63.8 168.7 184.0 640.1
11 12:10 34.1 50 18.87 22.2 9 9 1010.3 0 39.8 35.6 67.9 179.6 197.2 685.9
11 12:00 34.5 51 19.65 22.9 7 13 1010.5 0 41.3 36.8 70.8 187.3 206.8 719.3
11 11:50 33.7 52 19.21 22.5 7 11 1010.7 0 40.5 36.4 69.6 184.3 202.9 705.8
11 11:40 34.1 52 19.62 23.1 7 11 1010.8 0 41.3 36.9 71.0 188.0 207.5 721.8
11 11:30 33.5 54 19.74 23.2 7 13 1010.9 0 41.6 37.4 72.1 190.8 210.8 733.2
11 11:20 33.2 55 19.79 23.2 9 9 1011.1 0 41.8 37.6 72.6 192.1 212.3 738.6
11 11:10 33.1 61 21.84 24.6 9 9 1011.2 0 46.0 41.3 81.7 216.4 242.1 842.0
11 11:00 32.5 59 20.46 23.7 9 13 1011.2 0 43.2 39.1 76.2 201.7 223.9 778.6
11 10:50 32.1 62 21.05 23.9 7 11 1011.3 0 44.5 40.4 79.2 209.7 233.6 812.5
11 10:40 32.4 61 21.04 23.9 7 13 1011.3 0 44.5 40.2 78.9 208.8 232.6 808.8
11 10:30 32 62 20.94 23.8 7 11 1011.4 0 44.3 40.2 78.8 208.7 232.3 808.0
11 10:20 31.7 67 22.27 24.8 9 11 1011.4 0 47.1 42.8 85.2 225.7 253.1 880.2
11 10:10 30.9 66 21.01 23.8 13 15 1011.5 0 44.6 40.9 80.3 212.6 236.8 823.4
11 10:00 30.8 68 21.53 24.4 7 13 1011.5 0 45.7 41.9 82.8 219.2 244.9 851.6
11 09:50 30.4 75 23.25 25.5 7 9 1011.6 0 49.3 45.4 91.4 242.1 272.9 948.7
11 09:40 30.2 77 23.61 25.7 7 7 1011.5 0 50.1 46.2 93.4 247.4 279.3 971.1
11 09:30 29.8 77 23.1 25.3 4 7 1011.4 0 49.1 45.4 91.4 242.1 272.7 947.9
11 09:20 29.6 77 22.85 25.3 2 4 1011.4 0 48.6 45.0 90.4 239.5 269.4 936.7
11 09:10 29 79 22.69 25 6 7 1011.4 0 48.3 45.0 90.4 239.3 269.1 935.3
11 09:00 28.9 81 23.14 25.3 0 0 1011.3 0 49.3 46.0 92.7 245.5 276.6 961.5
11 08:50 28 81 22.03 24.4 0 0 1011.2 0 47.1 44.3 88.3 233.9 262.1 911.0
11 08:40 27.7 83 22.2 24.5 0 0 1011.1 0 47.5 44.8 89.5 237.0 265.9 924.1
11 08:30 27 85 21.88 24.3 6 9 1011.2 0 46.9 44.5 88.8 235.0 263.3 914.9
11 08:20 26.5 86 21.53 24 4 6 1011.1 0 46.2 44.1 87.6 232.0 259.4 901.3
11 08:10 25.7 89 21.31 23.7 4 6 1011.1 0 45.8 44.1 87.5 231.6 258.7 898.6
11 08:00 25.2 93 21.65 24 6 7 1011 0 46.6 45.0 89.8 237.7 266.0 923.9
11 07:50 24.6 95 21.38 23.7 2 6 1011 0 46.1 44.8 89.1 235.9 263.7 916.0
11 07:40 23.9 96 20.77 23.2 4 6 1011 0 44.9 44.0 86.9 230.0 256.2 889.6
11 07:30 23.4 96 20.19 22.7 0 0 1010.8 0 43.7 43.1 84.5 223.7 248.4 862.5
11 07:20 23 96 19.73 22.3 0 0 1010.8 0 42.8 42.3 82.7 218.8 242.2 841.1
11 07:10 22.7 96 19.39 22 0 0 1010.6 0 42.1 41.8 81.3 215.2 237.7 825.3
11 07:00 22.9 96 19.62 22.2 0 0 1010.6 0 42.5 42.2 82.3 217.6 240.7 835.9
11 06:50 22.9 95 19.41 22.1 0 0 1010.6 0 42.1 41.8 81.2 214.9 237.4 824.2
11 06:40 22.5 95 18.97 21.7 0 0 1010.4 0 41.2 41.1 79.5 210.2 231.5 803.9
11 06:30 22.7 95 19.19 21.9 0 0 1010.4 0 41.6 41.4 80.3 212.5 234.4 814.0

Last Refresh: 11-Apr-2021 23:11:14

Bureau of Meteorology